sensor_id;sensor_type;location;lat;lon;timestamp;P1;durP1;ratioP1;P2;durP2;ratioP2
14326;SDS011;7247;53.330;-1.180;2023-07-13T00:02:10;4.07;;;1.90;;
14326;SDS011;7247;53.330;-1.180;2023-07-13T00:04:36;3.90;;;2.10;;
14326;SDS011;7247;53.330;-1.180;2023-07-13T00:07:03;4.70;;;2.53;;
14326;SDS011;7247;53.330;-1.180;2023-07-13T00:09:29;10.23;;;7.40;;
14326;SDS011;7247;53.330;-1.180;2023-07-13T00:11:56;15.47;;;13.70;;
14326;SDS011;7247;53.330;-1.180;2023-07-13T00:14:24;20.17;;;17.77;;
14326;SDS011;7247;53.330;-1.180;2023-07-13T00:16:50;23.30;;;19.83;;
14326;SDS011;7247;53.330;-1.180;2023-07-13T00:19:19;15.97;;;14.27;;
14326;SDS011;7247;53.330;-1.180;2023-07-13T00:21:45;23.10;;;19.63;;
14326;SDS011;7247;53.330;-1.180;2023-07-13T00:24:13;25.00;;;22.40;;
14326;SDS011;7247;53.330;-1.180;2023-07-13T00:26:40;21.47;;;19.23;;
14326;SDS011;7247;53.330;-1.180;2023-07-13T00:29:10;17.77;;;15.83;;
14326;SDS011;7247;53.330;-1.180;2023-07-13T00:31:37;22.80;;;19.63;;
14326;SDS011;7247;53.330;-1.180;2023-07-13T00:34:04;18.47;;;15.13;;
14326;SDS011;7247;53.330;-1.180;2023-07-13T00:36:31;15.37;;;10.70;;
14326;SDS011;7247;53.330;-1.180;2023-07-13T00:38:58;7.30;;;4.73;;
14326;SDS011;7247;53.330;-1.180;2023-07-13T00:41:24;8.30;;;3.60;;
14326;SDS011;7247;53.330;-1.180;2023-07-13T00:43:51;6.53;;;3.00;;
14326;SDS011;7247;53.330;-1.180;2023-07-13T00:46:19;6.87;;;3.10;;
14326;SDS011;7247;53.330;-1.180;2023-07-13T00:48:47;8.30;;;3.03;;
14326;SDS011;7247;53.330;-1.180;2023-07-13T00:51:14;7.60;;;3.27;;
14326;SDS011;7247;53.330;-1.180;2023-07-13T00:53:43;6.07;;;3.00;;
14326;SDS011;7247;53.330;-1.180;2023-07-13T00:56:10;10.20;;;3.77;;
14326;SDS011;7247;53.330;-1.180;2023-07-13T00:58:36;4.67;;;3.03;;
14326;SDS011;7247;53.330;-1.180;2023-07-13T01:01:03;8.70;;;3.10;;
14326;SDS011;7247;53.330;-1.180;2023-07-13T01:03:29;5.93;;;3.00;;
14326;SDS011;7247;53.330;-1.180;2023-07-13T01:05:56;8.67;;;3.50;;
14326;SDS011;7247;53.330;-1.180;2023-07-13T01:08:22;6.33;;;3.13;;
14326;SDS011;7247;53.330;-1.180;2023-07-13T01:10:54;9.20;;;3.23;;
14326;SDS011;7247;53.330;-1.180;2023-07-13T01:13:21;7.77;;;3.37;;
14326;SDS011;7247;53.330;-1.180;2023-07-13T01:15:49;9.90;;;3.40;;
14326;SDS011;7247;53.330;-1.180;2023-07-13T01:18:17;7.97;;;3.50;;
14326;SDS011;7247;53.330;-1.180;2023-07-13T01:20:52;8.80;;;3.20;;
14326;SDS011;7247;53.330;-1.180;2023-07-13T01:23:19;7.83;;;3.60;;
14326;SDS011;7247;53.330;-1.180;2023-07-13T01:25:45;5.73;;;3.07;;
14326;SDS011;7247;53.330;-1.180;2023-07-13T01:28:11;6.17;;;3.27;;
14326;SDS011;7247;53.330;-1.180;2023-07-13T01:30:39;10.57;;;3.50;;
14326;SDS011;7247;53.330;-1.180;2023-07-13T01:33:06;8.00;;;3.30;;
14326;SDS011;7247;53.330;-1.180;2023-07-13T01:35:32;8.97;;;3.30;;
14326;SDS011;7247;53.330;-1.180;2023-07-13T01:38:00;7.77;;;3.43;;
14326;SDS011;7247;53.330;-1.180;2023-07-13T01:40:28;9.77;;;3.60;;
14326;SDS011;7247;53.330;-1.180;2023-07-13T01:42:55;7.90;;;4.10;;
14326;SDS011;7247;53.330;-1.180;2023-07-13T01:45:21;9.43;;;3.90;;
14326;SDS011;7247;53.330;-1.180;2023-07-13T01:47:48;9.83;;;4.23;;
14326;SDS011;7247;53.330;-1.180;2023-07-13T01:50:14;8.10;;;3.60;;
14326;SDS011;7247;53.330;-1.180;2023-07-13T01:52:41;10.03;;;3.67;;
14326;SDS011;7247;53.330;-1.180;2023-07-13T01:55:08;7.23;;;4.10;;
14326;SDS011;7247;53.330;-1.180;2023-07-13T01:57:35;7.07;;;3.80;;
14326;SDS011;7247;53.330;-1.180;2023-07-13T02:00:02;8.00;;;3.67;;
14326;SDS011;7247;53.330;-1.180;2023-07-13T02:02:29;6.83;;;3.57;;
14326;SDS011;7247;53.330;-1.180;2023-07-13T02:04:56;7.00;;;3.77;;
14326;SDS011;7247;53.330;-1.180;2023-07-13T02:07:22;7.73;;;4.23;;
14326;SDS011;7247;53.330;-1.180;2023-07-13T02:09:49;8.43;;;4.03;;
14326;SDS011;7247;53.330;-1.180;2023-07-13T02:12:16;7.27;;;4.20;;
14326;SDS011;7247;53.330;-1.180;2023-07-13T02:14:43;12.83;;;7.43;;
14326;SDS011;7247;53.330;-1.180;2023-07-13T02:17:09;18.00;;;12.73;;
14326;SDS011;7247;53.330;-1.180;2023-07-13T02:19:35;22.03;;;16.10;;
14326;SDS011;7247;53.330;-1.180;2023-07-13T02:22:01;19.63;;;14.43;;
14326;SDS011;7247;53.330;-1.180;2023-07-13T02:24:28;13.40;;;9.37;;
14326;SDS011;7247;53.330;-1.180;2023-07-13T02:26:54;13.03;;;6.83;;
14326;SDS011;7247;53.330;-1.180;2023-07-13T02:29:22;9.10;;;5.10;;
14326;SDS011;7247;53.330;-1.180;2023-07-13T02:31:49;8.13;;;4.23;;
14326;SDS011;7247;53.330;-1.180;2023-07-13T02:34:15;10.07;;;4.50;;
14326;SDS011;7247;53.330;-1.180;2023-07-13T02:36:42;7.67;;;4.20;;
14326;SDS011;7247;53.330;-1.180;2023-07-13T02:39:08;10.67;;;4.13;;
14326;SDS011;7247;53.330;-1.180;2023-07-13T02:41:35;11.20;;;3.97;;
14326;SDS011;7247;53.330;-1.180;2023-07-13T02:44:02;8.40;;;4.00;;
14326;SDS011;7247;53.330;-1.180;2023-07-13T02:46:30;13.43;;;5.10;;
14326;SDS011;7247;53.330;-1.180;2023-07-13T02:48:56;11.27;;;7.03;;
14326;SDS011;7247;53.330;-1.180;2023-07-13T02:51:23;13.93;;;9.10;;
14326;SDS011;7247;53.330;-1.180;2023-07-13T02:53:49;16.07;;;10.07;;
14326;SDS011;7247;53.330;-1.180;2023-07-13T02:56:16;12.87;;;6.50;;
14326;SDS011;7247;53.330;-1.180;2023-07-13T02:58:42;9.43;;;5.40;;
14326;SDS011;7247;53.330;-1.180;2023-07-13T03:01:09;10.87;;;4.47;;
14326;SDS011;7247;53.330;-1.180;2023-07-13T03:03:37;12.57;;;5.07;;
14326;SDS011;7247;53.330;-1.180;2023-07-13T03:06:04;11.00;;;5.40;;
14326;SDS011;7247;53.330;-1.180;2023-07-13T03:08:32;8.13;;;5.00;;
14326;SDS011;7247;53.330;-1.180;2023-07-13T03:10:59;10.67;;;5.10;;
14326;SDS011;7247;53.330;-1.180;2023-07-13T03:13:26;14.63;;;5.60;;
14326;SDS011;7247;53.330;-1.180;2023-07-13T03:15:53;8.60;;;5.53;;
14326;SDS011;7247;53.330;-1.180;2023-07-13T03:18:19;9.27;;;5.27;;
14326;SDS011;7247;53.330;-1.180;2023-07-13T03:20:47;10.27;;;5.67;;
14326;SDS011;7247;53.330;-1.180;2023-07-13T03:23:16;11.33;;;5.40;;
14326;SDS011;7247;53.330;-1.180;2023-07-13T03:25:42;10.07;;;6.10;;
14326;SDS011;7247;53.330;-1.180;2023-07-13T03:28:10;11.30;;;5.97;;
14326;SDS011;7247;53.330;-1.180;2023-07-13T03:30:36;12.70;;;5.53;;
14326;SDS011;7247;53.330;-1.180;2023-07-13T03:33:03;10.37;;;5.67;;
14326;SDS011;7247;53.330;-1.180;2023-07-13T03:35:29;9.73;;;5.80;;
14326;SDS011;7247;53.330;-1.180;2023-07-13T03:37:59;10.77;;;6.90;;
14326;SDS011;7247;53.330;-1.180;2023-07-13T03:40:25;11.60;;;6.70;;
14326;SDS011;7247;53.330;-1.180;2023-07-13T03:42:52;11.90;;;5.77;;
14326;SDS011;7247;53.330;-1.180;2023-07-13T03:45:18;11.93;;;6.10;;
14326;SDS011;7247;53.330;-1.180;2023-07-13T03:47:45;11.30;;;6.57;;
14326;SDS011;7247;53.330;-1.180;2023-07-13T03:50:11;11.60;;;6.13;;
14326;SDS011;7247;53.330;-1.180;2023-07-13T03:52:38;10.63;;;5.90;;
14326;SDS011;7247;53.330;-1.180;2023-07-13T03:55:06;8.97;;;5.77;;
14326;SDS011;7247;53.330;-1.180;2023-07-13T03:57:33;9.53;;;6.70;;
14326;SDS011;7247;53.330;-1.180;2023-07-13T03:59:59;10.33;;;6.47;;
14326;SDS011;7247;53.330;-1.180;2023-07-13T04:02:26;11.43;;;6.17;;
14326;SDS011;7247;53.330;-1.180;2023-07-13T04:04:52;12.87;;;6.43;;
14326;SDS011;7247;53.330;-1.180;2023-07-13T04:07:19;11.63;;;6.07;;
14326;SDS011;7247;53.330;-1.180;2023-07-13T04:09:45;10.93;;;7.70;;
14326;SDS011;7247;53.330;-1.180;2023-07-13T04:12:13;25.77;;;17.77;;
14326;SDS011;7247;53.330;-1.180;2023-07-13T04:14:40;30.97;;;25.27;;
14326;SDS011;7247;53.330;-1.180;2023-07-13T04:17:06;29.30;;;23.17;;
14326;SDS011;7247;53.330;-1.180;2023-07-13T04:19:33;21.13;;;15.37;;
14326;SDS011;7247;53.330;-1.180;2023-07-13T04:21:59;20.57;;;11.67;;
14326;SDS011;7247;53.330;-1.180;2023-07-13T04:24:26;16.40;;;10.10;;
14326;SDS011;7247;53.330;-1.180;2023-07-13T04:26:52;14.17;;;8.50;;
14326;SDS011;7247;53.330;-1.180;2023-07-13T04:29:20;11.23;;;7.40;;
14326;SDS011;7247;53.330;-1.180;2023-07-13T04:31:47;10.80;;;6.77;;
14326;SDS011;7247;53.330;-1.180;2023-07-13T04:34:13;13.53;;;7.97;;
14326;SDS011;7247;53.330;-1.180;2023-07-13T04:36:39;19.73;;;13.47;;
14326;SDS011;7247;53.330;-1.180;2023-07-13T04:39:08;14.27;;;9.80;;
14326;SDS011;7247;53.330;-1.180;2023-07-13T04:41:34;13.23;;;7.47;;
14326;SDS011;7247;53.330;-1.180;2023-07-13T04:44:00;14.63;;;7.40;;
14326;SDS011;7247;53.330;-1.180;2023-07-13T04:46:29;12.00;;;6.63;;
14326;SDS011;7247;53.330;-1.180;2023-07-13T04:48:56;10.73;;;6.50;;
14326;SDS011;7247;53.330;-1.180;2023-07-13T04:51:23;7.60;;;5.40;;
14326;SDS011;7247;53.330;-1.180;2023-07-13T04:53:50;9.43;;;6.10;;
14326;SDS011;7247;53.330;-1.180;2023-07-13T04:56:17;8.87;;;5.17;;
14326;SDS011;7247;53.330;-1.180;2023-07-13T04:58:44;7.83;;;5.40;;
14326;SDS011;7247;53.330;-1.180;2023-07-13T05:01:11;7.97;;;5.40;;
14326;SDS011;7247;53.330;-1.180;2023-07-13T05:03:40;9.83;;;5.40;;
14326;SDS011;7247;53.330;-1.180;2023-07-13T05:06:07;9.30;;;5.30;;
14326;SDS011;7247;53.330;-1.180;2023-07-13T05:08:35;7.03;;;5.63;;
14326;SDS011;7247;53.330;-1.180;2023-07-13T05:11:03;9.97;;;6.00;;
14326;SDS011;7247;53.330;-1.180;2023-07-13T05:13:29;7.97;;;5.70;;
14326;SDS011;7247;53.330;-1.180;2023-07-13T05:15:56;7.37;;;5.80;;
14326;SDS011;7247;53.330;-1.180;2023-07-13T05:18:23;8.97;;;5.80;;
14326;SDS011;7247;53.330;-1.180;2023-07-13T05:20:56;8.57;;;5.83;;
14326;SDS011;7247;53.330;-1.180;2023-07-13T05:23:23;8.63;;;5.83;;
14326;SDS011;7247;53.330;-1.180;2023-07-13T05:25:49;10.20;;;5.80;;
14326;SDS011;7247;53.330;-1.180;2023-07-13T05:28:16;8.00;;;5.73;;
14326;SDS011;7247;53.330;-1.180;2023-07-13T05:30:44;6.83;;;6.03;;
14326;SDS011;7247;53.330;-1.180;2023-07-13T05:33:11;6.67;;;6.00;;
14326;SDS011;7247;53.330;-1.180;2023-07-13T05:35:37;8.07;;;6.07;;
14326;SDS011;7247;53.330;-1.180;2023-07-13T05:38:05;7.47;;;5.47;;
14326;SDS011;7247;53.330;-1.180;2023-07-13T05:40:32;6.50;;;5.63;;
14326;SDS011;7247;53.330;-1.180;2023-07-13T05:42:59;6.03;;;5.43;;
14326;SDS011;7247;53.330;-1.180;2023-07-13T05:45:26;8.63;;;5.40;;
14326;SDS011;7247;53.330;-1.180;2023-07-13T05:47:53;7.20;;;5.00;;
14326;SDS011;7247;53.330;-1.180;2023-07-13T05:50:19;8.27;;;5.30;;
14326;SDS011;7247;53.330;-1.180;2023-07-13T05:52:46;9.03;;;5.10;;
14326;SDS011;7247;53.330;-1.180;2023-07-13T05:55:14;7.47;;;4.90;;
14326;SDS011;7247;53.330;-1.180;2023-07-13T05:57:40;8.47;;;5.20;;
14326;SDS011;7247;53.330;-1.180;2023-07-13T06:00:07;6.73;;;4.80;;
14326;SDS011;7247;53.330;-1.180;2023-07-13T06:02:34;6.03;;;5.20;;
14326;SDS011;7247;53.330;-1.180;2023-07-13T06:05:01;9.30;;;5.20;;
14326;SDS011;7247;53.330;-1.180;2023-07-13T06:07:27;13.50;;;6.73;;
14326;SDS011;7247;53.330;-1.180;2023-07-13T06:09:54;13.97;;;7.17;;
14326;SDS011;7247;53.330;-1.180;2023-07-13T06:12:22;15.27;;;7.60;;
14326;SDS011;7247;53.330;-1.180;2023-07-13T06:14:48;12.40;;;6.47;;
14326;SDS011;7247;53.330;-1.180;2023-07-13T06:17:15;12.70;;;5.70;;
14326;SDS011;7247;53.330;-1.180;2023-07-13T06:19:41;7.60;;;5.70;;
14326;SDS011;7247;53.330;-1.180;2023-07-13T06:22:08;6.70;;;5.53;;
14326;SDS011;7247;53.330;-1.180;2023-07-13T06:24:34;9.73;;;5.50;;
14326;SDS011;7247;53.330;-1.180;2023-07-13T06:27:00;9.27;;;5.83;;
14326;SDS011;7247;53.330;-1.180;2023-07-13T06:29:29;9.50;;;5.60;;
14326;SDS011;7247;53.330;-1.180;2023-07-13T06:31:56;7.40;;;5.57;;
14326;SDS011;7247;53.330;-1.180;2023-07-13T06:34:23;10.53;;;6.43;;
14326;SDS011;7247;53.330;-1.180;2023-07-13T06:36:49;9.67;;;5.30;;
14326;SDS011;7247;53.330;-1.180;2023-07-13T06:39:16;5.53;;;4.40;;
14326;SDS011;7247;53.330;-1.180;2023-07-13T06:41:42;6.67;;;4.03;;
14326;SDS011;7247;53.330;-1.180;2023-07-13T06:44:08;5.30;;;4.03;;
14326;SDS011;7247;53.330;-1.180;2023-07-13T06:46:36;5.00;;;4.47;;
14326;SDS011;7247;53.330;-1.180;2023-07-13T06:49:03;4.67;;;3.90;;
14326;SDS011;7247;53.330;-1.180;2023-07-13T06:51:29;11.20;;;5.40;;
14326;SDS011;7247;53.330;-1.180;2023-07-13T06:53:55;10.17;;;6.10;;
14326;SDS011;7247;53.330;-1.180;2023-07-13T06:56:22;14.23;;;6.20;;
14326;SDS011;7247;53.330;-1.180;2023-07-13T06:58:48;12.47;;;6.60;;
14326;SDS011;7247;53.330;-1.180;2023-07-13T07:01:15;13.20;;;6.07;;
14326;SDS011;7247;53.330;-1.180;2023-07-13T07:03:43;17.37;;;6.17;;
14326;SDS011;7247;53.330;-1.180;2023-07-13T07:06:12;11.03;;;5.50;;
14326;SDS011;7247;53.330;-1.180;2023-07-13T07:08:40;13.07;;;5.60;;
14326;SDS011;7247;53.330;-1.180;2023-07-13T07:11:07;9.17;;;4.80;;
14326;SDS011;7247;53.330;-1.180;2023-07-13T07:13:34;6.00;;;4.63;;
14326;SDS011;7247;53.330;-1.180;2023-07-13T07:16:00;6.50;;;4.20;;
14326;SDS011;7247;53.330;-1.180;2023-07-13T07:18:27;6.50;;;4.00;;
14326;SDS011;7247;53.330;-1.180;2023-07-13T07:20:55;6.87;;;3.90;;
14326;SDS011;7247;53.330;-1.180;2023-07-13T07:23:21;6.03;;;3.80;;
14326;SDS011;7247;53.330;-1.180;2023-07-13T07:25:48;4.30;;;3.90;;
14326;SDS011;7247;53.330;-1.180;2023-07-13T07:28:15;5.47;;;4.33;;
14326;SDS011;7247;53.330;-1.180;2023-07-13T07:30:43;4.70;;;4.30;;
14326;SDS011;7247;53.330;-1.180;2023-07-13T07:33:09;4.40;;;4.00;;
14326;SDS011;7247;53.330;-1.180;2023-07-13T07:35:36;4.80;;;4.30;;
14326;SDS011;7247;53.330;-1.180;2023-07-13T07:38:03;3.83;;;3.43;;
14326;SDS011;7247;53.330;-1.180;2023-07-13T07:40:30;4.97;;;3.40;;
14326;SDS011;7247;53.330;-1.180;2023-07-13T07:42:58;4.17;;;3.60;;
14326;SDS011;7247;53.330;-1.180;2023-07-13T07:45:26;4.90;;;3.93;;
14326;SDS011;7247;53.330;-1.180;2023-07-13T07:47:52;5.50;;;4.83;;
14326;SDS011;7247;53.330;-1.180;2023-07-13T07:50:20;7.27;;;5.43;;
14326;SDS011;7247;53.330;-1.180;2023-07-13T07:52:46;5.33;;;4.10;;
14326;SDS011;7247;53.330;-1.180;2023-07-13T07:55:14;5.77;;;3.90;;
14326;SDS011;7247;53.330;-1.180;2023-07-13T07:57:40;3.77;;;3.10;;
14326;SDS011;7247;53.330;-1.180;2023-07-13T08:00:07;4.50;;;2.93;;
14326;SDS011;7247;53.330;-1.180;2023-07-13T08:02:34;3.50;;;2.53;;
14326;SDS011;7247;53.330;-1.180;2023-07-13T08:05:00;2.73;;;2.37;;
14326;SDS011;7247;53.330;-1.180;2023-07-13T08:07:26;2.57;;;2.10;;
14326;SDS011;7247;53.330;-1.180;2023-07-13T08:09:53;2.47;;;2.00;;
14326;SDS011;7247;53.330;-1.180;2023-07-13T08:12:21;4.93;;;2.20;;
14326;SDS011;7247;53.330;-1.180;2023-07-13T08:14:49;3.23;;;2.00;;
14326;SDS011;7247;53.330;-1.180;2023-07-13T08:17:18;3.93;;;2.10;;
14326;SDS011;7247;53.330;-1.180;2023-07-13T08:19:45;5.20;;;2.50;;
14326;SDS011;7247;53.330;-1.180;2023-07-13T08:22:11;5.03;;;2.40;;
14326;SDS011;7247;53.330;-1.180;2023-07-13T08:24:38;8.23;;;2.80;;
14326;SDS011;7247;53.330;-1.180;2023-07-13T08:27:04;3.70;;;2.20;;
14326;SDS011;7247;53.330;-1.180;2023-07-13T08:29:32;2.77;;;2.13;;
14326;SDS011;7247;53.330;-1.180;2023-07-13T08:31:59;3.43;;;1.80;;
14326;SDS011;7247;53.330;-1.180;2023-07-13T08:34:25;3.73;;;2.13;;
14326;SDS011;7247;53.330;-1.180;2023-07-13T08:36:51;3.43;;;2.37;;
14326;SDS011;7247;53.330;-1.180;2023-07-13T08:39:18;2.77;;;2.13;;
14326;SDS011;7247;53.330;-1.180;2023-07-13T08:41:44;4.23;;;2.33;;
14326;SDS011;7247;53.330;-1.180;2023-07-13T08:44:18;3.80;;;2.03;;
14326;SDS011;7247;53.330;-1.180;2023-07-13T08:46:47;4.83;;;2.40;;
14326;SDS011;7247;53.330;-1.180;2023-07-13T08:49:16;4.00;;;2.20;;
14326;SDS011;7247;53.330;-1.180;2023-07-13T08:51:44;3.53;;;2.17;;
14326;SDS011;7247;53.330;-1.180;2023-07-13T08:54:18;2.87;;;2.00;;
14326;SDS011;7247;53.330;-1.180;2023-07-13T08:56:45;2.60;;;1.90;;
14326;SDS011;7247;53.330;-1.180;2023-07-13T08:59:13;3.60;;;2.10;;
14326;SDS011;7247;53.330;-1.180;2023-07-13T09:01:47;3.70;;;2.23;;
14326;SDS011;7247;53.330;-1.180;2023-07-13T09:04:20;3.40;;;1.90;;
14326;SDS011;7247;53.330;-1.180;2023-07-13T09:06:49;3.93;;;2.30;;
14326;SDS011;7247;53.330;-1.180;2023-07-13T09:09:20;4.40;;;2.23;;
14326;SDS011;7247;53.330;-1.180;2023-07-13T09:11:52;4.40;;;2.20;;
14326;SDS011;7247;53.330;-1.180;2023-07-13T09:14:28;4.60;;;2.20;;
14326;SDS011;7247;53.330;-1.180;2023-07-13T09:16:59;5.53;;;2.07;;
14326;SDS011;7247;53.330;-1.180;2023-07-13T09:19:28;5.43;;;2.07;;
14326;SDS011;7247;53.330;-1.180;2023-07-13T09:21:57;3.90;;;2.00;;
14326;SDS011;7247;53.330;-1.180;2023-07-13T09:24:29;3.20;;;1.90;;
14326;SDS011;7247;53.330;-1.180;2023-07-13T09:26:57;3.83;;;2.10;;
14326;SDS011;7247;53.330;-1.180;2023-07-13T09:29:26;3.67;;;2.20;;
14326;SDS011;7247;53.330;-1.180;2023-07-13T09:31:53;3.30;;;2.20;;
14326;SDS011;7247;53.330;-1.180;2023-07-13T09:34:20;2.83;;;1.90;;
14326;SDS011;7247;53.330;-1.180;2023-07-13T09:36:48;5.70;;;2.13;;
14326;SDS011;7247;53.330;-1.180;2023-07-13T09:39:18;4.43;;;2.00;;
14326;SDS011;7247;53.330;-1.180;2023-07-13T09:41:49;3.07;;;2.00;;
14326;SDS011;7247;53.330;-1.180;2023-07-13T09:44:18;3.73;;;1.83;;
14326;SDS011;7247;53.330;-1.180;2023-07-13T09:46:54;4.43;;;1.90;;
14326;SDS011;7247;53.330;-1.180;2023-07-13T09:49:23;3.00;;;1.80;;
14326;SDS011;7247;53.330;-1.180;2023-07-13T09:51:57;3.57;;;1.90;;
14326;SDS011;7247;53.330;-1.180;2023-07-13T09:54:24;3.50;;;1.83;;
14326;SDS011;7247;53.330;-1.180;2023-07-13T09:56:53;1.90;;;1.50;;
14326;SDS011;7247;53.330;-1.180;2023-07-13T09:59:21;2.43;;;1.67;;
14326;SDS011;7247;53.330;-1.180;2023-07-13T10:01:49;2.50;;;1.70;;
14326;SDS011;7247;53.330;-1.180;2023-07-13T10:04:16;2.97;;;1.47;;
14326;SDS011;7247;53.330;-1.180;2023-07-13T10:06:46;5.13;;;1.97;;
14326;SDS011;7247;53.330;-1.180;2023-07-13T10:09:16;3.03;;;1.70;;
14326;SDS011;7247;53.330;-1.180;2023-07-13T10:11:44;4.53;;;1.90;;
14326;SDS011;7247;53.330;-1.180;2023-07-13T10:14:12;3.00;;;1.87;;
14326;SDS011;7247;53.330;-1.180;2023-07-13T10:16:39;2.30;;;1.90;;
14326;SDS011;7247;53.330;-1.180;2023-07-13T10:19:10;3.67;;;2.07;;
14326;SDS011;7247;53.330;-1.180;2023-07-13T10:21:49;3.17;;;1.90;;
14326;SDS011;7247;53.330;-1.180;2023-07-13T10:24:19;2.43;;;2.03;;
14326;SDS011;7247;53.330;-1.180;2023-07-13T10:26:49;3.17;;;1.90;;
14326;SDS011;7247;53.330;-1.180;2023-07-13T10:29:17;2.23;;;1.90;;
14326;SDS011;7247;53.330;-1.180;2023-07-13T10:31:44;4.10;;;1.80;;
14326;SDS011;7247;53.330;-1.180;2023-07-13T10:34:11;2.00;;;1.47;;
14326;SDS011;7247;53.330;-1.180;2023-07-13T10:36:39;2.70;;;1.70;;
14326;SDS011;7247;53.330;-1.180;2023-07-13T10:39:06;2.43;;;1.70;;
14326;SDS011;7247;53.330;-1.180;2023-07-13T10:41:39;3.07;;;1.80;;
14326;SDS011;7247;53.330;-1.180;2023-07-13T10:44:06;3.03;;;1.40;;
14326;SDS011;7247;53.330;-1.180;2023-07-13T10:46:37;2.73;;;1.60;;
14326;SDS011;7247;53.330;-1.180;2023-07-13T10:49:04;2.00;;;1.60;;
14326;SDS011;7247;53.330;-1.180;2023-07-13T10:51:31;2.07;;;1.77;;
14326;SDS011;7247;53.330;-1.180;2023-07-13T10:57:08;4.17;;;1.77;;
14326;SDS011;7247;53.330;-1.180;2023-07-13T10:59:41;1.70;;;1.50;;
14326;SDS011;7247;53.330;-1.180;2023-07-13T11:02:12;3.40;;;1.70;;
14326;SDS011;7247;53.330;-1.180;2023-07-13T11:04:41;3.40;;;2.07;;
14326;SDS011;7247;53.330;-1.180;2023-07-13T11:07:10;3.43;;;2.00;;
14326;SDS011;7247;53.330;-1.180;2023-07-13T11:09:37;3.37;;;1.87;;
14326;SDS011;7247;53.330;-1.180;2023-07-13T11:12:25;1.97;;;1.77;;
14326;SDS011;7247;53.330;-1.180;2023-07-13T11:15:03;4.60;;;1.80;;
14326;SDS011;7247;53.330;-1.180;2023-07-13T11:17:46;2.90;;;1.60;;
14326;SDS011;7247;53.330;-1.180;2023-07-13T11:20:32;2.27;;;1.40;;
14326;SDS011;7247;53.330;-1.180;2023-07-13T11:25:47;3.27;;;1.83;;
14326;SDS011;7247;53.330;-1.180;2023-07-13T11:28:16;3.83;;;1.70;;
14326;SDS011;7247;53.330;-1.180;2023-07-13T11:30:44;2.80;;;1.60;;
14326;SDS011;7247;53.330;-1.180;2023-07-13T11:33:16;3.43;;;1.47;;
14326;SDS011;7247;53.330;-1.180;2023-07-13T11:35:45;2.53;;;1.70;;
14326;SDS011;7247;53.330;-1.180;2023-07-13T11:38:14;2.40;;;1.50;;
14326;SDS011;7247;53.330;-1.180;2023-07-13T11:40:42;3.10;;;1.40;;
14326;SDS011;7247;53.330;-1.180;2023-07-13T11:43:11;1.80;;;1.40;;
14326;SDS011;7247;53.330;-1.180;2023-07-13T11:45:40;4.53;;;1.60;;
14326;SDS011;7247;53.330;-1.180;2023-07-13T11:48:16;2.47;;;1.30;;
14326;SDS011;7247;53.330;-1.180;2023-07-13T11:50:43;4.00;;;1.57;;
14326;SDS011;7247;53.330;-1.180;2023-07-13T11:53:15;2.03;;;1.27;;
14326;SDS011;7247;53.330;-1.180;2023-07-13T11:55:42;2.53;;;1.57;;
14326;SDS011;7247;53.330;-1.180;2023-07-13T11:58:08;2.33;;;1.40;;
14326;SDS011;7247;53.330;-1.180;2023-07-13T12:00:36;2.93;;;1.50;;
14326;SDS011;7247;53.330;-1.180;2023-07-13T12:03:07;3.43;;;1.57;;
14326;SDS011;7247;53.330;-1.180;2023-07-13T12:05:34;2.57;;;1.60;;
14326;SDS011;7247;53.330;-1.180;2023-07-13T12:08:08;2.77;;;1.63;;
14326;SDS011;7247;53.330;-1.180;2023-07-13T12:10:36;4.10;;;1.60;;
14326;SDS011;7247;53.330;-1.180;2023-07-13T12:13:03;2.17;;;1.50;;
14326;SDS011;7247;53.330;-1.180;2023-07-13T12:15:30;1.90;;;1.47;;
14326;SDS011;7247;53.330;-1.180;2023-07-13T12:18:01;1.73;;;1.53;;
14326;SDS011;7247;53.330;-1.180;2023-07-13T12:20:30;3.03;;;1.70;;
14326;SDS011;7247;53.330;-1.180;2023-07-13T12:22:59;2.47;;;1.40;;
14326;SDS011;7247;53.330;-1.180;2023-07-13T12:25:27;2.80;;;1.50;;
14326;SDS011;7247;53.330;-1.180;2023-07-13T12:27:55;2.13;;;1.63;;
14326;SDS011;7247;53.330;-1.180;2023-07-13T12:30:26;3.87;;;1.57;;
14326;SDS011;7247;53.330;-1.180;2023-07-13T12:32:56;6.23;;;1.70;;
14326;SDS011;7247;53.330;-1.180;2023-07-13T12:35:23;2.47;;;1.53;;
14326;SDS011;7247;53.330;-1.180;2023-07-13T12:37:51;2.40;;;1.80;;
14326;SDS011;7247;53.330;-1.180;2023-07-13T12:40:19;2.50;;;1.57;;
14326;SDS011;7247;53.330;-1.180;2023-07-13T12:42:47;2.80;;;1.50;;
14326;SDS011;7247;53.330;-1.180;2023-07-13T12:45:17;1.87;;;1.53;;
14326;SDS011;7247;53.330;-1.180;2023-07-13T12:47:47;2.20;;;1.60;;
14326;SDS011;7247;53.330;-1.180;2023-07-13T12:50:14;3.87;;;1.80;;
14326;SDS011;7247;53.330;-1.180;2023-07-13T12:52:42;2.37;;;1.40;;
14326;SDS011;7247;53.330;-1.180;2023-07-13T12:55:13;2.50;;;1.70;;
14326;SDS011;7247;53.330;-1.180;2023-07-13T12:57:40;1.97;;;1.60;;
14326;SDS011;7247;53.330;-1.180;2023-07-13T13:02:52;3.57;;;1.80;;
14326;SDS011;7247;53.330;-1.180;2023-07-13T13:05:21;2.03;;;1.50;;
14326;SDS011;7247;53.330;-1.180;2023-07-13T13:07:48;1.83;;;1.67;;
14326;SDS011;7247;53.330;-1.180;2023-07-13T13:10:16;4.13;;;2.17;;
14326;SDS011;7247;53.330;-1.180;2023-07-13T13:12:42;3.60;;;2.00;;
14326;SDS011;7247;53.330;-1.180;2023-07-13T13:15:09;3.50;;;1.87;;
14326;SDS011;7247;53.330;-1.180;2023-07-13T13:17:36;2.90;;;1.60;;
14326;SDS011;7247;53.330;-1.180;2023-07-13T13:20:04;3.10;;;1.97;;
14326;SDS011;7247;53.330;-1.180;2023-07-13T13:22:31;3.73;;;1.80;;
14326;SDS011;7247;53.330;-1.180;2023-07-13T13:24:57;4.07;;;2.00;;
14326;SDS011;7247;53.330;-1.180;2023-07-13T13:27:25;2.73;;;1.80;;
14326;SDS011;7247;53.330;-1.180;2023-07-13T13:29:52;1.73;;;1.50;;
14326;SDS011;7247;53.330;-1.180;2023-07-13T13:32:19;2.53;;;1.50;;
14326;SDS011;7247;53.330;-1.180;2023-07-13T13:34:45;2.97;;;1.90;;
14326;SDS011;7247;53.330;-1.180;2023-07-13T13:37:16;2.40;;;1.67;;
14326;SDS011;7247;53.330;-1.180;2023-07-13T13:39:44;2.73;;;1.93;;
14326;SDS011;7247;53.330;-1.180;2023-07-13T13:42:10;2.47;;;1.67;;
14326;SDS011;7247;53.330;-1.180;2023-07-13T13:44:38;3.23;;;1.70;;
14326;SDS011;7247;53.330;-1.180;2023-07-13T13:47:07;3.80;;;1.77;;
14326;SDS011;7247;53.330;-1.180;2023-07-13T13:49:43;3.33;;;2.00;;
14326;SDS011;7247;53.330;-1.180;2023-07-13T13:52:09;4.17;;;1.80;;
14326;SDS011;7247;53.330;-1.180;2023-07-13T13:54:36;3.63;;;1.80;;
14326;SDS011;7247;53.330;-1.180;2023-07-13T13:57:03;2.80;;;1.93;;
14326;SDS011;7247;53.330;-1.180;2023-07-13T13:59:29;2.87;;;2.20;;
14326;SDS011;7247;53.330;-1.180;2023-07-13T14:01:59;4.07;;;2.03;;
14326;SDS011;7247;53.330;-1.180;2023-07-13T14:04:25;2.73;;;1.90;;
14326;SDS011;7247;53.330;-1.180;2023-07-13T14:06:52;4.90;;;2.10;;
14326;SDS011;7247;53.330;-1.180;2023-07-13T14:09:19;3.87;;;1.80;;
14326;SDS011;7247;53.330;-1.180;2023-07-13T14:11:45;2.50;;;1.90;;
14326;SDS011;7247;53.330;-1.180;2023-07-13T14:14:14;4.30;;;2.33;;
14326;SDS011;7247;53.330;-1.180;2023-07-13T14:16:41;4.33;;;2.10;;
14326;SDS011;7247;53.330;-1.180;2023-07-13T14:19:10;3.17;;;2.37;;
14326;SDS011;7247;53.330;-1.180;2023-07-13T14:21:39;3.70;;;1.77;;
14326;SDS011;7247;53.330;-1.180;2023-07-13T14:24:05;3.20;;;2.00;;
14326;SDS011;7247;53.330;-1.180;2023-07-13T14:26:32;2.87;;;1.83;;
14326;SDS011;7247;53.330;-1.180;2023-07-13T14:29:00;5.70;;;2.33;;
14326;SDS011;7247;53.330;-1.180;2023-07-13T14:31:26;3.60;;;2.10;;
14326;SDS011;7247;53.330;-1.180;2023-07-13T14:33:54;4.37;;;2.20;;
14326;SDS011;7247;53.330;-1.180;2023-07-13T14:36:26;3.33;;;2.07;;
14326;SDS011;7247;53.330;-1.180;2023-07-13T14:38:53;4.33;;;2.10;;
14326;SDS011;7247;53.330;-1.180;2023-07-13T14:41:19;2.97;;;1.90;;
14326;SDS011;7247;53.330;-1.180;2023-07-13T14:43:46;3.27;;;2.10;;
14326;SDS011;7247;53.330;-1.180;2023-07-13T14:46:18;2.40;;;1.90;;
14326;SDS011;7247;53.330;-1.180;2023-07-13T14:48:47;4.30;;;2.00;;
14326;SDS011;7247;53.330;-1.180;2023-07-13T14:51:14;2.80;;;1.80;;
14326;SDS011;7247;53.330;-1.180;2023-07-13T14:53:42;4.75;;;2.13;;
14326;SDS011;7247;53.330;-1.180;2023-07-13T14:56:10;5.22;;;2.20;;